sensor_id;sensor_type;location;lat;lon;timestamp;P1;durP1;ratioP1;P2;durP2;ratioP2
75687;SDS011;64300;45.034;38.910;2023-05-07T00:01:38;7.53;;;2.08;;
75687;SDS011;64300;45.034;38.910;2023-05-07T00:04:03;9.30;;;2.20;;
75687;SDS011;64300;45.034;38.910;2023-05-07T00:06:29;6.22;;;2.03;;
75687;SDS011;64300;45.034;38.910;2023-05-07T00:08:56;8.98;;;2.28;;
75687;SDS011;64300;45.034;38.910;2023-05-07T00:11:24;10.65;;;1.77;;
75687;SDS011;64300;45.034;38.910;2023-05-07T00:13:51;7.93;;;2.13;;
75687;SDS011;64300;45.034;38.910;2023-05-07T00:16:16;7.97;;;2.60;;
75687;SDS011;64300;45.034;38.910;2023-05-07T00:18:42;11.95;;;2.50;;
75687;SDS011;64300;45.034;38.910;2023-05-07T00:21:08;11.85;;;2.15;;
75687;SDS011;64300;45.034;38.910;2023-05-07T00:23:33;3.17;;;1.17;;
75687;SDS011;64300;45.034;38.910;2023-05-07T00:25:59;11.68;;;3.08;;
75687;SDS011;64300;45.034;38.910;2023-05-07T00:28:25;7.20;;;2.03;;
75687;SDS011;64300;45.034;38.910;2023-05-07T00:30:50;9.82;;;2.88;;
75687;SDS011;64300;45.034;38.910;2023-05-07T00:33:16;16.67;;;2.35;;
75687;SDS011;64300;45.034;38.910;2023-05-07T00:35:42;6.18;;;2.10;;
75687;SDS011;64300;45.034;38.910;2023-05-07T00:38:07;8.98;;;2.20;;
75687;SDS011;64300;45.034;38.910;2023-05-07T00:40:33;8.90;;;1.75;;
75687;SDS011;64300;45.034;38.910;2023-05-07T00:42:59;7.25;;;2.33;;
75687;SDS011;64300;45.034;38.910;2023-05-07T00:45:28;9.80;;;2.13;;
75687;SDS011;64300;45.034;38.910;2023-05-07T00:47:55;9.30;;;2.85;;
75687;SDS011;64300;45.034;38.910;2023-05-07T00:50:21;12.27;;;2.50;;
75687;SDS011;64300;45.034;38.910;2023-05-07T00:52:47;7.28;;;2.13;;
75687;SDS011;64300;45.034;38.910;2023-05-07T00:55:13;9.68;;;2.22;;
75687;SDS011;64300;45.034;38.910;2023-05-07T00:57:40;8.48;;;2.15;;
75687;SDS011;64300;45.034;38.910;2023-05-07T01:00:08;6.85;;;2.10;;
75687;SDS011;64300;45.034;38.910;2023-05-07T01:02:35;13.30;;;2.13;;
75687;SDS011;64300;45.034;38.910;2023-05-07T01:05:01;7.53;;;2.15;;
75687;SDS011;64300;45.034;38.910;2023-05-07T01:07:28;10.07;;;2.13;;
75687;SDS011;64300;45.034;38.910;2023-05-07T01:09:54;6.35;;;1.50;;
75687;SDS011;64300;45.034;38.910;2023-05-07T01:12:20;4.88;;;1.80;;
75687;SDS011;64300;45.034;38.910;2023-05-07T01:14:46;10.82;;;2.65;;
75687;SDS011;64300;45.034;38.910;2023-05-07T01:17:14;9.38;;;2.20;;
75687;SDS011;64300;45.034;38.910;2023-05-07T01:19:40;12.75;;;2.15;;
75687;SDS011;64300;45.034;38.910;2023-05-07T01:22:09;11.98;;;2.20;;
75687;SDS011;64300;45.034;38.910;2023-05-07T01:24:46;4.68;;;1.92;;
75687;SDS011;64300;45.034;38.910;2023-05-07T01:27:13;4.68;;;1.90;;
75687;SDS011;64300;45.034;38.910;2023-05-07T01:29:39;4.28;;;1.83;;
75687;SDS011;64300;45.034;38.910;2023-05-07T01:32:05;8.43;;;1.80;;
75687;SDS011;64300;45.034;38.910;2023-05-07T01:34:31;5.85;;;1.50;;
75687;SDS011;64300;45.034;38.910;2023-05-07T01:36:57;8.60;;;1.83;;
75687;SDS011;64300;45.034;38.910;2023-05-07T01:39:25;9.77;;;1.90;;
75687;SDS011;64300;45.034;38.910;2023-05-07T01:41:53;5.47;;;2.05;;
75687;SDS011;64300;45.034;38.910;2023-05-07T01:44:19;5.00;;;1.67;;
75687;SDS011;64300;45.034;38.910;2023-05-07T01:46:48;5.20;;;1.23;;
75687;SDS011;64300;45.034;38.910;2023-05-07T01:49:14;4.50;;;1.83;;
75687;SDS011;64300;45.034;38.910;2023-05-07T01:51:40;7.15;;;2.13;;
75687;SDS011;64300;45.034;38.910;2023-05-07T01:54:06;7.47;;;1.98;;
75687;SDS011;64300;45.034;38.910;2023-05-07T01:56:33;2.97;;;1.48;;
75687;SDS011;64300;45.034;38.910;2023-05-07T01:58:59;12.82;;;2.50;;
75687;SDS011;64300;45.034;38.910;2023-05-07T02:01:26;7.07;;;2.20;;
75687;SDS011;64300;45.034;38.910;2023-05-07T02:03:55;6.90;;;1.65;;
75687;SDS011;64300;45.034;38.910;2023-05-07T02:06:24;5.13;;;1.67;;
75687;SDS011;64300;45.034;38.910;2023-05-07T02:08:54;9.50;;;1.83;;
75687;SDS011;64300;45.034;38.910;2023-05-07T02:11:19;5.13;;;1.80;;
75687;SDS011;64300;45.034;38.910;2023-05-07T02:13:46;11.60;;;2.17;;
75687;SDS011;64300;45.034;38.910;2023-05-07T02:16:11;3.30;;;1.65;;
75687;SDS011;64300;45.034;38.910;2023-05-07T02:18:39;3.95;;;1.65;;
75687;SDS011;64300;45.034;38.910;2023-05-07T02:21:05;8.10;;;2.28;;
75687;SDS011;64300;45.034;38.910;2023-05-07T02:23:31;4.30;;;1.52;;
75687;SDS011;64300;45.034;38.910;2023-05-07T02:25:56;5.55;;;1.80;;
75687;SDS011;64300;45.034;38.910;2023-05-07T02:28:25;8.70;;;1.90;;
75687;SDS011;64300;45.034;38.910;2023-05-07T02:30:56;5.88;;;1.90;;
75687;SDS011;64300;45.034;38.910;2023-05-07T02:33:24;3.33;;;1.05;;
75687;SDS011;64300;45.034;38.910;2023-05-07T02:35:50;6.47;;;2.03;;
75687;SDS011;64300;45.034;38.910;2023-05-07T02:38:17;8.10;;;1.77;;
75687;SDS011;64300;45.034;38.910;2023-05-07T02:40:43;7.80;;;1.83;;
75687;SDS011;64300;45.034;38.910;2023-05-07T02:43:09;7.35;;;1.88;;
75687;SDS011;64300;45.034;38.910;2023-05-07T02:45:34;4.47;;;1.63;;
75687;SDS011;64300;45.034;38.910;2023-05-07T02:48:03;5.32;;;1.80;;
75687;SDS011;64300;45.034;38.910;2023-05-07T02:53:13;6.13;;;1.73;;
75687;SDS011;64300;45.034;38.910;2023-05-07T02:55:39;5.35;;;1.63;;
75687;SDS011;64300;45.034;38.910;2023-05-07T02:58:08;7.18;;;2.20;;
75687;SDS011;64300;45.034;38.910;2023-05-07T03:00:36;3.42;;;1.50;;
75687;SDS011;64300;45.034;38.910;2023-05-07T03:03:28;5.53;;;1.60;;
75687;SDS011;64300;45.034;38.910;2023-05-07T03:05:53;11.85;;;1.85;;
75687;SDS011;64300;45.034;38.910;2023-05-07T03:08:19;5.03;;;1.45;;
75687;SDS011;64300;45.034;38.910;2023-05-07T03:10:48;5.72;;;1.45;;
75687;SDS011;64300;45.034;38.910;2023-05-07T03:13:14;5.35;;;1.85;;
75687;SDS011;64300;45.034;38.910;2023-05-07T03:15:40;3.80;;;1.17;;
75687;SDS011;64300;45.034;38.910;2023-05-07T03:18:06;6.85;;;1.52;;
75687;SDS011;64300;45.034;38.910;2023-05-07T03:20:31;5.32;;;1.50;;
75687;SDS011;64300;45.034;38.910;2023-05-07T03:22:57;5.80;;;1.65;;
75687;SDS011;64300;45.034;38.910;2023-05-07T03:25:27;5.43;;;1.60;;
75687;SDS011;64300;45.034;38.910;2023-05-07T03:27:58;5.68;;;2.00;;
75687;SDS011;64300;45.034;38.910;2023-05-07T03:30:44;4.43;;;1.48;;
75687;SDS011;64300;45.034;38.910;2023-05-07T03:36:27;6.85;;;1.30;;
75687;SDS011;64300;45.034;38.910;2023-05-07T03:38:57;5.07;;;1.70;;
75687;SDS011;64300;45.034;38.910;2023-05-07T03:41:32;5.68;;;1.45;;
75687;SDS011;64300;45.034;38.910;2023-05-07T03:44:04;8.73;;;1.45;;
75687;SDS011;64300;45.034;38.910;2023-05-07T03:46:30;8.18;;;1.52;;
75687;SDS011;64300;45.034;38.910;2023-05-07T03:48:58;3.05;;;1.50;;
75687;SDS011;64300;45.034;38.910;2023-05-07T03:51:24;5.50;;;1.50;;
75687;SDS011;64300;45.034;38.910;2023-05-07T03:53:53;5.65;;;1.50;;
75687;SDS011;64300;45.034;38.910;2023-05-07T03:56:25;5.20;;;1.45;;
75687;SDS011;64300;45.034;38.910;2023-05-07T03:59:18;4.57;;;1.45;;
75687;SDS011;64300;45.034;38.910;2023-05-07T04:02:00;3.33;;;1.25;;
75687;SDS011;64300;45.034;38.910;2023-05-07T04:04:31;7.88;;;1.90;;
75687;SDS011;64300;45.034;38.910;2023-05-07T04:06:59;4.53;;;1.70;;
75687;SDS011;64300;45.034;38.910;2023-05-07T04:09:26;2.70;;;1.40;;
75687;SDS011;64300;45.034;38.910;2023-05-07T04:12:16;3.00;;;1.33;;
75687;SDS011;64300;45.034;38.910;2023-05-07T04:21:28;4.53;;;1.23;;
75687;SDS011;64300;45.034;38.910;2023-05-07T04:27:10;3.88;;;1.10;;
75687;SDS011;64300;45.034;38.910;2023-05-07T04:29:36;3.85;;;1.25;;
75687;SDS011;64300;45.034;38.910;2023-05-07T04:32:02;4.63;;;1.52;;
75687;SDS011;64300;45.034;38.910;2023-05-07T04:34:29;2.90;;;1.35;;
75687;SDS011;64300;45.034;38.910;2023-05-07T04:36:57;3.35;;;1.08;;
75687;SDS011;64300;45.034;38.910;2023-05-07T04:39:22;5.47;;;1.50;;
75687;SDS011;64300;45.034;38.910;2023-05-07T04:41:48;4.13;;;1.27;;
75687;SDS011;64300;45.034;38.910;2023-05-07T04:44:14;3.30;;;1.27;;
75687;SDS011;64300;45.034;38.910;2023-05-07T04:46:40;4.50;;;1.10;;
75687;SDS011;64300;45.034;38.910;2023-05-07T04:49:10;5.30;;;1.40;;
75687;SDS011;64300;45.034;38.910;2023-05-07T04:51:38;7.78;;;1.38;;
75687;SDS011;64300;45.034;38.910;2023-05-07T04:54:04;5.93;;;1.20;;
75687;SDS011;64300;45.034;38.910;2023-05-07T04:56:30;2.97;;;1.27;;
75687;SDS011;64300;45.034;38.910;2023-05-07T04:58:57;6.80;;;0.95;;
75687;SDS011;64300;45.034;38.910;2023-05-07T05:01:23;3.55;;;1.15;;
75687;SDS011;64300;45.034;38.910;2023-05-07T05:03:49;6.85;;;1.58;;
75687;SDS011;64300;45.034;38.910;2023-05-07T05:06:14;7.30;;;1.40;;
75687;SDS011;64300;45.034;38.910;2023-05-07T05:08:40;8.90;;;1.65;;
75687;SDS011;64300;45.034;38.910;2023-05-07T05:11:06;4.88;;;1.13;;
75687;SDS011;64300;45.034;38.910;2023-05-07T05:13:41;6.38;;;1.40;;
75687;SDS011;64300;45.034;38.910;2023-05-07T05:16:18;8.52;;;1.50;;
75687;SDS011;64300;45.034;38.910;2023-05-07T05:18:44;6.40;;;1.23;;
75687;SDS011;64300;45.034;38.910;2023-05-07T05:21:13;3.67;;;1.30;;
75687;SDS011;64300;45.034;38.910;2023-05-07T05:23:41;3.47;;;1.50;;
75687;SDS011;64300;45.034;38.910;2023-05-07T05:26:09;4.22;;;1.25;;
75687;SDS011;64300;45.034;38.910;2023-05-07T05:28:35;7.68;;;1.55;;
75687;SDS011;64300;45.034;38.910;2023-05-07T05:48:41;5.53;;;1.02;;
75687;SDS011;64300;45.034;38.910;2023-05-07T05:51:09;6.15;;;1.80;;
75687;SDS011;64300;45.034;38.910;2023-05-07T05:53:35;13.02;;;1.70;;
75687;SDS011;64300;45.034;38.910;2023-05-07T05:56:01;8.50;;;1.20;;
75687;SDS011;64300;45.034;38.910;2023-05-07T05:58:29;5.25;;;1.27;;
75687;SDS011;64300;45.034;38.910;2023-05-07T06:00:59;10.27;;;1.35;;
75687;SDS011;64300;45.034;38.910;2023-05-07T06:03:28;4.72;;;1.45;;
75687;SDS011;64300;45.034;38.910;2023-05-07T06:06:00;3.85;;;1.50;;
75687;SDS011;64300;45.034;38.910;2023-05-07T06:08:30;3.70;;;1.20;;
75687;SDS011;64300;45.034;38.910;2023-05-07T06:10:56;6.15;;;1.65;;
75687;SDS011;64300;45.034;38.910;2023-05-07T06:13:22;5.90;;;1.23;;
75687;SDS011;64300;45.034;38.910;2023-05-07T06:15:49;4.28;;;1.15;;
75687;SDS011;64300;45.034;38.910;2023-05-07T06:18:16;3.85;;;1.20;;
75687;SDS011;64300;45.034;38.910;2023-05-07T06:20:41;5.93;;;1.92;;
75687;SDS011;64300;45.034;38.910;2023-05-07T06:23:16;6.68;;;1.45;;
75687;SDS011;64300;45.034;38.910;2023-05-07T06:25:41;3.67;;;1.27;;
75687;SDS011;64300;45.034;38.910;2023-05-07T06:28:07;6.35;;;1.75;;
75687;SDS011;64300;45.034;38.910;2023-05-07T06:30:41;7.03;;;1.42;;
75687;SDS011;64300;45.034;38.910;2023-05-07T06:33:11;7.85;;;1.40;;
75687;SDS011;64300;45.034;38.910;2023-05-07T06:35:37;6.93;;;1.08;;
75687;SDS011;64300;45.034;38.910;2023-05-07T06:38:02;3.38;;;1.33;;
75687;SDS011;64300;45.034;38.910;2023-05-07T06:40:29;2.67;;;1.02;;
75687;SDS011;64300;45.034;38.910;2023-05-07T06:42:57;5.75;;;1.15;;
75687;SDS011;64300;45.034;38.910;2023-05-07T06:45:46;7.40;;;1.52;;
75687;SDS011;64300;45.034;38.910;2023-05-07T06:48:12;4.03;;;0.93;;
75687;SDS011;64300;45.034;38.910;2023-05-07T06:51:04;4.93;;;1.48;;
75687;SDS011;64300;45.034;38.910;2023-05-07T06:53:30;5.30;;;1.38;;
75687;SDS011;64300;45.034;38.910;2023-05-07T06:55:57;6.55;;;1.60;;
75687;SDS011;64300;45.034;38.910;2023-05-07T06:58:22;11.68;;;1.58;;
75687;SDS011;64300;45.034;38.910;2023-05-07T07:00:48;5.53;;;1.80;;
75687;SDS011;64300;45.034;38.910;2023-05-07T07:03:14;10.45;;;1.90;;
75687;SDS011;64300;45.034;38.910;2023-05-07T07:05:40;7.72;;;1.30;;
75687;SDS011;64300;45.034;38.910;2023-05-07T07:08:06;7.75;;;1.80;;
75687;SDS011;64300;45.034;38.910;2023-05-07T07:10:32;8.70;;;1.60;;
75687;SDS011;64300;45.034;38.910;2023-05-07T07:13:00;5.65;;;1.42;;
75687;SDS011;64300;45.034;38.910;2023-05-07T07:15:26;4.88;;;1.30;;
75687;SDS011;64300;45.034;38.910;2023-05-07T07:17:54;8.50;;;1.90;;
75687;SDS011;64300;45.034;38.910;2023-05-07T07:20:21;4.55;;;1.15;;
75687;SDS011;64300;45.034;38.910;2023-05-07T07:22:47;7.63;;;1.50;;
75687;SDS011;64300;45.034;38.910;2023-05-07T07:25:15;6.15;;;1.77;;
75687;SDS011;64300;45.034;38.910;2023-05-07T07:27:43;7.47;;;1.55;;
75687;SDS011;64300;45.034;38.910;2023-05-07T07:30:10;4.63;;;1.65;;
75687;SDS011;64300;45.034;38.910;2023-05-07T07:32:39;7.88;;;1.63;;
75687;SDS011;64300;45.034;38.910;2023-05-07T07:35:05;6.55;;;1.33;;
75687;SDS011;64300;45.034;38.910;2023-05-07T07:37:31;5.32;;;1.35;;
75687;SDS011;64300;45.034;38.910;2023-05-07T07:39:57;4.97;;;1.45;;
75687;SDS011;64300;45.034;38.910;2023-05-07T07:42:24;10.70;;;1.88;;
75687;SDS011;64300;45.034;38.910;2023-05-07T07:44:50;7.35;;;1.63;;
75687;SDS011;64300;45.034;38.910;2023-05-07T07:47:20;17.52;;;1.92;;
75687;SDS011;64300;45.034;38.910;2023-05-07T07:49:47;9.18;;;1.92;;
75687;SDS011;64300;45.034;38.910;2023-05-07T07:52:12;6.82;;;1.85;;
75687;SDS011;64300;45.034;38.910;2023-05-07T07:54:40;5.70;;;1.88;;
75687;SDS011;64300;45.034;38.910;2023-05-07T07:57:10;4.47;;;2.05;;
75687;SDS011;64300;45.034;38.910;2023-05-07T07:59:36;6.75;;;2.08;;
75687;SDS011;64300;45.034;38.910;2023-05-07T08:02:03;10.75;;;2.20;;
75687;SDS011;64300;45.034;38.910;2023-05-07T08:04:29;6.00;;;1.70;;
75687;SDS011;64300;45.034;38.910;2023-05-07T08:07:00;9.40;;;1.60;;
75687;SDS011;64300;45.034;38.910;2023-05-07T08:09:28;4.88;;;1.90;;
75687;SDS011;64300;45.034;38.910;2023-05-07T08:11:56;11.52;;;2.00;;
75687;SDS011;64300;45.034;38.910;2023-05-07T08:14:22;8.50;;;2.00;;
75687;SDS011;64300;45.034;38.910;2023-05-07T08:16:47;14.43;;;5.82;;
75687;SDS011;64300;45.034;38.910;2023-05-07T08:19:13;7.97;;;1.90;;
75687;SDS011;64300;45.034;38.910;2023-05-07T08:21:40;9.98;;;2.97;;
75687;SDS011;64300;45.034;38.910;2023-05-07T08:24:07;11.85;;;2.30;;
75687;SDS011;64300;45.034;38.910;2023-05-07T08:26:34;6.15;;;2.60;;
75687;SDS011;64300;45.034;38.910;2023-05-07T08:29:02;8.80;;;1.75;;
75687;SDS011;64300;45.034;38.910;2023-05-07T08:31:28;6.80;;;1.90;;
75687;SDS011;64300;45.034;38.910;2023-05-07T08:33:53;5.78;;;1.90;;
75687;SDS011;64300;45.034;38.910;2023-05-07T08:36:19;8.48;;;2.30;;
75687;SDS011;64300;45.034;38.910;2023-05-07T08:38:45;7.97;;;2.33;;
75687;SDS011;64300;45.034;38.910;2023-05-07T08:41:12;9.25;;;1.80;;
75687;SDS011;64300;45.034;38.910;2023-05-07T08:43:40;9.40;;;2.10;;
75687;SDS011;64300;45.034;38.910;2023-05-07T08:46:08;8.65;;;2.00;;
75687;SDS011;64300;45.034;38.910;2023-05-07T08:48:42;12.55;;;2.17;;
75687;SDS011;64300;45.034;38.910;2023-05-07T08:51:12;8.27;;;2.47;;
75687;SDS011;64300;45.034;38.910;2023-05-07T08:53:40;9.82;;;1.90;;
75687;SDS011;64300;45.034;38.910;2023-05-07T08:59:45;11.55;;;2.17;;
75687;SDS011;64300;45.034;38.910;2023-05-07T09:46:43;11.50;;;2.47;;
75687;SDS011;64300;45.034;38.910;2023-05-07T09:52:50;10.70;;;1.98;;
75687;SDS011;64300;45.034;38.910;2023-05-07T09:57:51;7.53;;;2.67;;
75687;SDS011;64300;45.034;38.910;2023-05-07T10:00:21;9.85;;;1.95;;
75687;SDS011;64300;45.034;38.910;2023-05-07T10:02:51;7.93;;;2.08;;
75687;SDS011;64300;45.034;38.910;2023-05-07T10:05:24;8.93;;;2.13;;
75687;SDS011;64300;45.034;38.910;2023-05-07T10:07:54;4.22;;;1.83;;
75687;SDS011;64300;45.034;38.910;2023-05-07T10:10:21;6.05;;;1.90;;
75687;SDS011;64300;45.034;38.910;2023-05-07T10:12:48;10.10;;;2.33;;
75687;SDS011;64300;45.034;38.910;2023-05-07T10:15:22;6.53;;;2.33;;
75687;SDS011;64300;45.034;38.910;2023-05-07T10:38:25;4.95;;;2.22;;
75687;SDS011;64300;45.034;38.910;2023-05-07T10:42:07;7.47;;;3.05;;
75687;SDS011;64300;45.034;38.910;2023-05-07T10:45:19;10.40;;;2.47;;
75687;SDS011;64300;45.034;38.910;2023-05-07T10:51:31;8.07;;;2.42;;
75687;SDS011;64300;45.034;38.910;2023-05-07T10:59:54;14.40;;;3.05;;
75687;SDS011;64300;45.034;38.910;2023-05-07T11:05:23;11.13;;;3.00;;
75687;SDS011;64300;45.034;38.910;2023-05-07T11:08:01;11.07;;;2.33;;
75687;SDS011;64300;45.034;38.910;2023-05-07T11:16:43;9.43;;;2.85;;
75687;SDS011;64300;45.034;38.910;2023-05-07T11:22:41;7.88;;;2.63;;
75687;SDS011;64300;45.034;38.910;2023-05-07T11:28:19;6.53;;;2.53;;
75687;SDS011;64300;45.034;38.910;2023-05-07T11:30:57;9.52;;;2.83;;
75687;SDS011;64300;45.034;38.910;2023-05-07T11:33:24;9.23;;;3.05;;
75687;SDS011;64300;45.034;38.910;2023-05-07T11:36:03;7.63;;;3.00;;
75687;SDS011;64300;45.034;38.910;2023-05-07T11:38:35;12.13;;;2.70;;
75687;SDS011;64300;45.034;38.910;2023-05-07T11:41:01;11.85;;;2.53;;
75687;SDS011;64300;45.034;38.910;2023-05-07T11:43:27;13.10;;;2.80;;
75687;SDS011;64300;45.034;38.910;2023-05-07T11:46:07;13.73;;;3.08;;
75687;SDS011;64300;45.034;38.910;2023-05-07T11:51:22;9.13;;;3.40;;
75687;SDS011;64300;45.034;38.910;2023-05-07T11:53:48;11.45;;;3.85;;
75687;SDS011;64300;45.034;38.910;2023-05-07T11:56:15;11.18;;;3.97;;
75687;SDS011;64300;45.034;38.910;2023-05-07T11:58:41;9.65;;;3.00;;
75687;SDS011;64300;45.034;38.910;2023-05-07T12:01:07;8.70;;;3.60;;
75687;SDS011;64300;45.034;38.910;2023-05-07T12:03:34;12.60;;;3.67;;
75687;SDS011;64300;45.034;38.910;2023-05-07T12:06:00;9.55;;;3.65;;
75687;SDS011;64300;45.034;38.910;2023-05-07T12:08:25;8.32;;;3.85;;
75687;SDS011;64300;45.034;38.910;2023-05-07T12:10:51;12.07;;;4.00;;
75687;SDS011;64300;45.034;38.910;2023-05-07T12:13:18;13.15;;;3.92;;
75687;SDS011;64300;45.034;38.910;2023-05-07T12:15:44;13.30;;;3.92;;
75687;SDS011;64300;45.034;38.910;2023-05-07T12:18:10;11.38;;;3.35;;
75687;SDS011;64300;45.034;38.910;2023-05-07T12:20:36;10.48;;;3.45;;
75687;SDS011;64300;45.034;38.910;2023-05-07T12:23:02;10.85;;;3.72;;
75687;SDS011;64300;45.034;38.910;2023-05-07T12:25:41;8.75;;;3.53;;
75687;SDS011;64300;45.034;38.910;2023-05-07T12:28:13;8.93;;;2.85;;
75687;SDS011;64300;45.034;38.910;2023-05-07T12:30:40;12.48;;;3.65;;
75687;SDS011;64300;45.034;38.910;2023-05-07T12:33:07;10.80;;;2.92;;
75687;SDS011;64300;45.034;38.910;2023-05-07T12:35:36;9.98;;;3.20;;
75687;SDS011;64300;45.034;38.910;2023-05-07T12:38:02;10.95;;;3.63;;
75687;SDS011;64300;45.034;38.910;2023-05-07T12:43:01;8.30;;;3.80;;
75687;SDS011;64300;45.034;38.910;2023-05-07T12:45:27;11.10;;;3.65;;
75687;SDS011;64300;45.034;38.910;2023-05-07T12:47:52;8.80;;;3.90;;
75687;SDS011;64300;45.034;38.910;2023-05-07T12:50:18;9.35;;;3.47;;
75687;SDS011;64300;45.034;38.910;2023-05-07T12:52:49;12.05;;;3.30;;
75687;SDS011;64300;45.034;38.910;2023-05-07T12:55:15;8.48;;;3.65;;
75687;SDS011;64300;45.034;38.910;2023-05-07T12:57:42;10.60;;;2.78;;
75687;SDS011;64300;45.034;38.910;2023-05-07T13:00:08;4.65;;;2.72;;
75687;SDS011;64300;45.034;38.910;2023-05-07T13:02:37;10.00;;;3.80;;
75687;SDS011;64300;45.034;38.910;2023-05-07T13:05:03;11.30;;;4.25;;
75687;SDS011;64300;45.034;38.910;2023-05-07T13:07:29;7.32;;;3.28;;
75687;SDS011;64300;45.034;38.910;2023-05-07T13:09:54;9.13;;;3.90;;
75687;SDS011;64300;45.034;38.910;2023-05-07T13:12:20;14.20;;;3.63;;
75687;SDS011;64300;45.034;38.910;2023-05-07T13:14:46;18.25;;;3.65;;
75687;SDS011;64300;45.034;38.910;2023-05-07T13:17:11;9.57;;;3.70;;
75687;SDS011;64300;45.034;38.910;2023-05-07T13:19:37;10.38;;;4.68;;
75687;SDS011;64300;45.034;38.910;2023-05-07T13:22:03;6.05;;;3.25;;
75687;SDS011;64300;45.034;38.910;2023-05-07T13:24:29;10.65;;;3.83;;
75687;SDS011;64300;45.034;38.910;2023-05-07T13:26:55;14.65;;;3.55;;
75687;SDS011;64300;45.034;38.910;2023-05-07T13:29:21;9.73;;;3.55;;
75687;SDS011;64300;45.034;38.910;2023-05-07T13:31:54;11.32;;;4.03;;
75687;SDS011;64300;45.034;38.910;2023-05-07T13:34:20;7.80;;;3.38;;
75687;SDS011;64300;45.034;38.910;2023-05-07T13:36:46;8.02;;;4.38;;
75687;SDS011;64300;45.034;38.910;2023-05-07T13:39:12;10.18;;;3.58;;
75687;SDS011;64300;45.034;38.910;2023-05-07T13:41:37;10.73;;;3.15;;
75687;SDS011;64300;45.034;38.910;2023-05-07T13:44:03;12.07;;;3.25;;
75687;SDS011;64300;45.034;38.910;2023-05-07T13:46:29;10.07;;;3.72;;
75687;SDS011;64300;45.034;38.910;2023-05-07T13:48:55;5.88;;;3.60;;
75687;SDS011;64300;45.034;38.910;2023-05-07T13:51:21;11.10;;;3.20;;
75687;SDS011;64300;45.034;38.910;2023-05-07T13:53:46;6.57;;;3.60;;
75687;SDS011;64300;45.034;38.910;2023-05-07T13:56:12;7.10;;;2.70;;
75687;SDS011;64300;45.034;38.910;2023-05-07T13:58:38;6.40;;;2.70;;
75687;SDS011;64300;45.034;38.910;2023-05-07T14:01:03;4.45;;;2.80;;
75687;SDS011;64300;45.034;38.910;2023-05-07T14:03:29;10.32;;;2.95;;
75687;SDS011;64300;45.034;38.910;2023-05-07T14:05:57;4.90;;;2.88;;
75687;SDS011;64300;45.034;38.910;2023-05-07T14:08:25;12.23;;;3.88;;
75687;SDS011;64300;45.034;38.910;2023-05-07T14:10:51;7.88;;;2.65;;
75687;SDS011;64300;45.034;38.910;2023-05-07T14:13:17;11.93;;;2.80;;
75687;SDS011;64300;45.034;38.910;2023-05-07T14:15:42;8.25;;;3.30;;
75687;SDS011;64300;45.034;38.910;2023-05-07T14:18:12;8.40;;;2.83;;
75687;SDS011;64300;45.034;38.910;2023-05-07T14:20:37;6.70;;;3.03;;
75687;SDS011;64300;45.034;38.910;2023-05-07T14:23:03;7.65;;;3.10;;
75687;SDS011;64300;45.034;38.910;2023-05-07T14:25:28;8.30;;;3.10;;
75687;SDS011;64300;45.034;38.910;2023-05-07T14:27:54;5.57;;;3.05;;
75687;SDS011;64300;45.034;38.910;2023-05-07T14:30:20;6.43;;;2.47;;
75687;SDS011;64300;45.034;38.910;2023-05-07T14:32:47;6.80;;;2.38;;
75687;SDS011;64300;45.034;38.910;2023-05-07T14:35:13;9.35;;;2.78;;
75687;SDS011;64300;45.034;38.910;2023-05-07T14:37:38;7.07;;;2.85;;
75687;SDS011;64300;45.034;38.910;2023-05-07T14:40:04;5.90;;;2.95;;
75687;SDS011;64300;45.034;38.910;2023-05-07T14:42:30;8.02;;;2.63;;
75687;SDS011;64300;45.034;38.910;2023-05-07T14:44:56;10.55;;;3.25;;
75687;SDS011;64300;45.034;38.910;2023-05-07T14:47:22;8.50;;;3.28;;
75687;SDS011;64300;45.034;38.910;2023-05-07T14:49:47;11.23;;;3.10;;
75687;SDS011;64300;45.034;38.910;2023-05-07T14:52:13;9.05;;;2.97;;
75687;SDS011;64300;45.034;38.910;2023-05-07T14:54:39;4.70;;;2.55;;
75687;SDS011;64300;45.034;38.910;2023-05-07T14:57:05;10.82;;;2.97;;
75687;SDS011;64300;45.034;38.910;2023-05-07T14:59:33;9.77;;;3.00;;
75687;SDS011;64300;45.034;38.910;2023-05-07T15:01:59;6.22;;;2.72;;
75687;SDS011;64300;45.034;38.910;2023-05-07T15:04:25;11.95;;;3.10;;
75687;SDS011;64300;45.034;38.910;2023-05-07T15:09:21;6.88;;;2.47;;
75687;SDS011;64300;45.034;38.910;2023-05-07T15:11:46;4.60;;;2.25;;
75687;SDS011;64300;45.034;38.910;2023-05-07T15:14:12;6.82;;;2.28;;
75687;SDS011;64300;45.034;38.910;2023-05-07T15:16:38;7.20;;;2.30;;
75687;SDS011;64300;45.034;38.910;2023-05-07T15:19:04;5.03;;;1.98;;
75687;SDS011;64300;45.034;38.910;2023-05-07T15:21:29;7.40;;;2.70;;
75687;SDS011;64300;45.034;38.910;2023-05-07T15:23:58;4.85;;;2.38;;
75687;SDS011;64300;45.034;38.910;2023-05-07T15:26:23;5.15;;;2.17;;
75687;SDS011;64300;45.034;38.910;2023-05-07T15:28:49;2.97;;;1.67;;
75687;SDS011;64300;45.034;38.910;2023-05-07T15:31:18;5.93;;;1.67;;
75687;SDS011;64300;45.034;38.910;2023-05-07T15:33:44;9.88;;;2.22;;
75687;SDS011;64300;45.034;38.910;2023-05-07T15:36:12;10.57;;;2.30;;
75687;SDS011;64300;45.034;38.910;2023-05-07T15:38:38;7.63;;;1.85;;
75687;SDS011;64300;45.034;38.910;2023-05-07T15:41:04;6.40;;;1.60;;
75687;SDS011;64300;45.034;38.910;2023-05-07T15:43:31;5.57;;;1.60;;
75687;SDS011;64300;45.034;38.910;2023-05-07T15:45:56;8.82;;;1.85;;
75687;SDS011;64300;45.034;38.910;2023-05-07T15:50:56;6.07;;;2.05;;
75687;SDS011;64300;45.034;38.910;2023-05-07T15:53:21;6.95;;;2.08;;
75687;SDS011;64300;45.034;38.910;2023-05-07T15:55:47;5.82;;;1.83;;
75687;SDS011;64300;45.034;38.910;2023-05-07T15:58:13;10.65;;;3.38;;
75687;SDS011;64300;45.034;38.910;2023-05-07T16:00:39;6.15;;;1.70;;
75687;SDS011;64300;45.034;38.910;2023-05-07T16:03:06;4.30;;;1.55;;
75687;SDS011;64300;45.034;38.910;2023-05-07T16:05:33;7.75;;;1.45;;
75687;SDS011;64300;45.034;38.910;2023-05-07T16:07:59;4.10;;;1.40;;
75687;SDS011;64300;45.034;38.910;2023-05-07T16:10:25;7.45;;;1.67;;
75687;SDS011;64300;45.034;38.910;2023-05-07T16:12:51;8.32;;;1.95;;
75687;SDS011;64300;45.034;38.910;2023-05-07T16:15:21;9.88;;;1.67;;
75687;SDS011;64300;45.034;38.910;2023-05-07T16:17:47;4.50;;;1.45;;
75687;SDS011;64300;45.034;38.910;2023-05-07T16:20:13;9.15;;;1.70;;
75687;SDS011;64300;45.034;38.910;2023-05-07T16:22:40;3.97;;;1.02;;
75687;SDS011;64300;45.034;38.910;2023-05-07T16:25:06;7.05;;;1.77;;
75687;SDS011;64300;45.034;38.910;2023-05-07T16:27:32;7.03;;;1.50;;
75687;SDS011;64300;45.034;38.910;2023-05-07T16:29:58;4.30;;;1.65;;
75687;SDS011;64300;45.034;38.910;2023-05-07T16:32:24;5.82;;;1.60;;
75687;SDS011;64300;45.034;38.910;2023-05-07T16:34:52;5.20;;;1.73;;
75687;SDS011;64300;45.034;38.910;2023-05-07T16:37:21;7.00;;;1.80;;
75687;SDS011;64300;45.034;38.910;2023-05-07T16:39:47;3.35;;;1.27;;
75687;SDS011;64300;45.034;38.910;2023-05-07T16:42:12;8.07;;;1.25;;
75687;SDS011;64300;45.034;38.910;2023-05-07T16:44:38;6.68;;;1.58;;
75687;SDS011;64300;45.034;38.910;2023-05-07T16:47:05;12.15;;;1.63;;
75687;SDS011;64300;45.034;38.910;2023-05-07T16:49:30;3.08;;;1.50;;
75687;SDS011;64300;45.034;38.910;2023-05-07T16:51:56;6.20;;;1.55;;
75687;SDS011;64300;45.034;38.910;2023-05-07T16:54:22;7.40;;;1.45;;
75687;SDS011;64300;45.034;38.910;2023-05-07T16:56:48;6.82;;;1.20;;
75687;SDS011;64300;45.034;38.910;2023-05-07T16:59:14;7.35;;;1.52;;